createdAt,value
2022-08-03T00:01:06.272Z,14.65
2022-08-03T00:04:33.582Z,14.63
2022-08-03T00:07:58.039Z,14.61
2022-08-03T00:11:20.235Z,14.58
2022-08-03T00:14:42.569Z,14.53
2022-08-03T00:18:04.467Z,14.52
2022-08-03T00:21:26.270Z,14.50
2022-08-03T00:24:49.527Z,14.44
2022-08-03T00:28:11.579Z,14.40
2022-08-03T00:31:44.963Z,14.32
2022-08-03T00:35:35.149Z,14.33
2022-08-03T00:38:57.500Z,14.21
2022-08-03T00:42:20.990Z,14.17
2022-08-03T00:45:45.244Z,14.18
2022-08-03T00:49:07.581Z,14.13
2022-08-03T00:52:29.821Z,14.10
2022-08-03T00:55:51.850Z,14.04
2022-08-03T00:59:15.993Z,14.00
2022-08-03T01:02:38.319Z,13.89
2022-08-03T01:06:08.723Z,13.78
2022-08-03T01:09:45.254Z,13.86
2022-08-03T01:14:01.715Z,13.85
2022-08-03T01:17:14.628Z,13.81
2022-08-03T01:20:42.095Z,13.71
2022-08-03T01:24:13.496Z,13.80
2022-08-03T01:27:52.390Z,13.79
2022-08-03T01:31:17.052Z,13.82
2022-08-03T01:34:56.994Z,13.82
2022-08-03T01:38:25.594Z,13.86
2022-08-03T01:41:50.776Z,13.88
2022-08-03T01:45:15.102Z,13.89
2022-08-03T01:48:41.166Z,13.89
2022-08-03T01:52:05.555Z,13.95
2022-08-03T01:55:28.863Z,13.98
2022-08-03T01:58:55.245Z,14.02
2022-08-03T02:02:33.249Z,14.04
2022-08-03T02:07:00.007Z,14.10
2022-08-03T02:09:42.885Z,14.08
2022-08-03T02:13:08.604Z,14.13
2022-08-03T02:16:32.577Z,14.14
2022-08-03T02:19:55.950Z,14.16
2022-08-03T02:23:19.555Z,14.24
2022-08-03T02:26:42.993Z,14.25
2022-08-03T02:30:08.891Z,14.29
2022-08-03T02:33:35.655Z,14.32
2022-08-03T02:37:01.540Z,14.29
2022-08-03T02:40:27.349Z,14.38
2022-08-03T02:44:05.481Z,14.36
2022-08-03T02:47:53.148Z,14.41
2022-08-03T02:51:13.695Z,14.57
2022-08-03T02:54:37.567Z,14.60
2022-08-03T02:58:02.185Z,14.60
2022-08-03T03:01:25.829Z,14.55
2022-08-03T03:05:52.106Z,14.59
2022-08-03T03:08:31.915Z,14.73
2022-08-03T03:11:55.240Z,14.80
2022-08-03T03:15:19.092Z,14.78
2022-08-03T03:18:41.694Z,14.93
2022-08-03T03:22:05.149Z,14.99
2022-08-03T03:25:27.439Z,15.06
2022-08-03T03:28:49.904Z,15.22
2022-08-03T03:32:13.738Z,15.37
2022-08-03T03:35:38.930Z,15.33
2022-08-03T03:39:15.243Z,15.29
2022-08-03T03:42:38.968Z,15.57
2022-08-03T03:46:02.077Z,15.69
2022-08-03T03:49:25.967Z,15.80
2022-08-03T03:52:48.059Z,15.98
2022-08-03T03:56:09.935Z,16.09
2022-08-03T03:59:31.968Z,16.18
2022-08-03T04:02:57.758Z,16.27
2022-08-03T04:06:38.922Z,16.33
2022-08-03T04:10:19.603Z,16.37
2022-08-03T04:13:45.034Z,16.43
2022-08-03T04:17:10.570Z,16.54
2022-08-03T04:20:34.106Z,16.77
2022-08-03T04:24:04.952Z,17.12
2022-08-03T04:27:30.099Z,17.33
2022-08-03T04:30:55.252Z,17.47
2022-08-03T04:34:17.793Z,17.46
2022-08-03T04:37:43.328Z,17.74
2022-08-03T04:41:08.795Z,17.85
2022-08-03T04:44:35.403Z,17.98
2022-08-03T04:47:58.596Z,18.05
2022-08-03T04:51:20.971Z,18.12
2022-08-03T04:54:45.887Z,18.20
2022-08-03T04:58:14.459Z,18.26
2022-08-03T05:01:36.890Z,18.42
2022-08-03T05:04:59.053Z,18.48
2022-08-03T05:08:28.011Z,18.52
2022-08-03T05:11:50.413Z,18.57
2022-08-03T05:15:14.279Z,18.66
2022-08-03T05:18:37.220Z,18.72
2022-08-03T05:21:59.704Z,18.71
2022-08-03T05:25:27.098Z,18.84
2022-08-03T05:28:51.179Z,18.82
2022-08-03T05:32:15.444Z,18.84
2022-08-03T05:36:01.089Z,18.79
2022-08-03T05:39:21.107Z,18.81
2022-08-03T05:42:42.953Z,18.80
2022-08-03T05:46:12.038Z,18.79
2022-08-03T05:49:37.413Z,18.85
2022-08-03T05:52:59.609Z,19.14
2022-08-03T05:56:25.174Z,19.25
2022-08-03T05:59:54.597Z,19.51
2022-08-03T06:03:21.192Z,19.76
2022-08-03T06:06:45.827Z,19.88
2022-08-03T06:10:36.610Z,19.95
2022-08-03T06:13:51.862Z,19.79
2022-08-03T06:17:13.734Z,19.83
2022-08-03T06:20:37.481Z,19.80
2022-08-03T06:24:01.144Z,19.92
2022-08-03T06:27:36.338Z,20.05
2022-08-03T06:31:02.081Z,20.10
2022-08-03T06:34:32.838Z,20.19
2022-08-03T06:37:57.569Z,20.27
2022-08-03T06:41:20.785Z,20.39
2022-08-03T06:44:42.870Z,20.52
2022-08-03T06:48:07.878Z,20.60
2022-08-03T06:52:03.276Z,20.71
2022-08-03T06:55:11.932Z,20.79
2022-08-03T06:58:35.989Z,20.75
2022-08-03T07:01:58.206Z,20.71
2022-08-03T07:05:20.487Z,20.57
2022-08-03T07:08:42.613Z,20.45
2022-08-03T07:12:06.690Z,20.24
2022-08-03T07:15:55.728Z,20.02
2022-08-03T07:19:13.254Z,20.19
2022-08-03T07:22:35.504Z,20.41
2022-08-03T07:25:57.937Z,20.59
2022-08-03T07:29:19.865Z,20.56
2022-08-03T07:32:50.260Z,20.70
2022-08-03T07:36:13.207Z,20.58
2022-08-03T07:39:35.255Z,20.55
2022-08-03T07:42:58.519Z,20.38
2022-08-03T07:46:20.523Z,20.17
2022-08-03T07:49:44.249Z,20.02
2022-08-03T07:53:06.157Z,19.82
2022-08-03T07:56:28.411Z,19.77
2022-08-03T08:00:01.644Z,19.74
2022-08-03T08:03:26.826Z,19.87
2022-08-03T08:06:50.433Z,19.94
2022-08-03T08:10:13.104Z,20.20
2022-08-03T08:13:35.563Z,20.61
2022-08-03T08:16:57.748Z,20.90
2022-08-03T08:20:30.481Z,20.80
2022-08-03T08:23:57.822Z,20.89
2022-08-03T08:27:19.790Z,20.95
2022-08-03T08:30:41.796Z,20.79
2022-08-03T08:34:05.836Z,20.64
2022-08-03T08:37:27.678Z,20.67
2022-08-03T08:40:51.597Z,20.80
2022-08-03T08:44:13.416Z,20.89
2022-08-03T08:47:51.564Z,21.20
2022-08-03T08:51:15.349Z,21.30
2022-08-03T08:54:38.732Z,21.44
2022-08-03T08:58:06.567Z,21.65
2022-08-03T09:01:29.389Z,21.72
2022-08-03T09:04:52.124Z,21.68
2022-08-03T09:08:13.994Z,21.60
2022-08-03T09:11:51.689Z,21.66
2022-08-03T09:15:21.753Z,21.73
2022-08-03T09:18:45.288Z,21.65
2022-08-03T09:22:12.703Z,21.68
2022-08-03T09:25:36.059Z,21.55
2022-08-03T09:29:04.641Z,21.63
2022-08-03T09:32:31.402Z,21.48
2022-08-03T09:35:57.892Z,21.79
2022-08-03T09:39:40.305Z,21.91
2022-08-03T09:43:02.904Z,22.10
2022-08-03T09:46:25.241Z,22.33
2022-08-03T09:50:01.987Z,22.48
2022-08-03T09:53:25.042Z,22.47
2022-08-03T09:56:48.885Z,22.46
2022-08-03T10:00:13.544Z,22.55
2022-08-03T10:03:46.104Z,22.53
2022-08-03T10:07:21.907Z,22.55
2022-08-03T10:10:45.877Z,22.34
2022-08-03T10:14:10.269Z,22.35
2022-08-03T10:17:35.203Z,22.30
2022-08-03T10:21:04.576Z,22.64
2022-08-03T10:24:30.948Z,22.72
2022-08-03T10:27:54.732Z,22.74
2022-08-03T10:31:19.692Z,22.87
2022-08-03T10:34:44.895Z,22.90
2022-08-03T10:38:11.594Z,22.93
2022-08-03T10:41:41.159Z,22.92
2022-08-03T10:45:09.216Z,22.96
2022-08-03T10:48:32.921Z,22.83
2022-08-03T10:51:55.166Z,23.03
2022-08-03T10:55:52.932Z,23.05
2022-08-03T10:59:27.384Z,23.20
2022-08-03T11:03:18.700Z,23.38
2022-08-03T11:06:41.153Z,23.44
2022-08-03T11:10:06.553Z,23.47
2022-08-03T11:13:34.138Z,23.50
2022-08-03T11:17:14.058Z,23.54
2022-08-03T11:20:48.805Z,23.62
2022-08-03T11:24:10.728Z,23.63
2022-08-03T11:27:34.116Z,23.62
2022-08-03T11:30:56.506Z,23.54
2022-08-03T11:34:19.978Z,23.52
2022-08-03T11:38:05.850Z,23.51
2022-08-03T11:41:43.282Z,23.55
2022-08-03T11:45:10.662Z,23.62
2022-08-03T11:48:37.323Z,23.68
2022-08-03T11:52:00.881Z,23.55
2022-08-03T11:55:23.745Z,23.55
2022-08-03T11:59:03.379Z,23.62
2022-08-03T12:02:31.338Z,23.50
2022-08-03T12:05:54.774Z,23.74
2022-08-03T12:09:21.173Z,23.82
2022-08-03T12:12:46.658Z,23.80
2022-08-03T12:16:09.507Z,23.82
2022-08-03T12:19:43.495Z,23.85
2022-08-03T12:23:07.165Z,23.92
2022-08-03T12:26:31.682Z,23.87
2022-08-03T12:29:58.165Z,23.74
2022-08-03T12:33:26.199Z,23.87
2022-08-03T12:36:52.538Z,23.93
2022-08-03T12:40:20.570Z,24.03
2022-08-03T12:43:51.050Z,24.12
2022-08-03T12:47:13.931Z,24.19
2022-08-03T12:50:38.376Z,24.25
2022-08-03T12:54:00.642Z,24.17
2022-08-03T12:57:22.562Z,24.26
2022-08-03T13:00:56.890Z,24.30
2022-08-03T13:04:27.748Z,24.22
2022-08-03T13:07:51.622Z,24.38
2022-08-03T13:11:55.760Z,24.40
2022-08-03T13:15:08.977Z,24.43
2022-08-03T13:18:32.762Z,24.41
2022-08-03T13:22:04.215Z,24.41
2022-08-03T13:25:27.059Z,24.25
2022-08-03T13:28:49.387Z,24.45
2022-08-03T13:32:12.079Z,24.43
2022-08-03T13:35:35.497Z,24.50
2022-08-03T13:38:57.375Z,24.51
2022-08-03T13:42:19.427Z,24.31
2022-08-03T13:45:44.635Z,24.42
2022-08-03T13:49:10.005Z,24.40
2022-08-03T13:52:35.396Z,24.45
2022-08-03T13:55:57.245Z,24.52
2022-08-03T13:59:19.000Z,24.45
2022-08-03T14:02:40.898Z,24.50
2022-08-03T14:06:02.771Z,24.54
2022-08-03T14:09:26.461Z,24.57
2022-08-03T14:12:48.310Z,24.49
2022-08-03T14:16:10.182Z,24.52
2022-08-03T14:19:32.084Z,24.50
2022-08-03T14:23:14.348Z,24.50
2022-08-03T14:26:38.032Z,24.50
2022-08-03T14:30:01.591Z,24.53
2022-08-03T14:33:23.518Z,24.50
2022-08-03T14:36:47.361Z,24.54
2022-08-03T14:40:10.382Z,24.53
2022-08-03T14:43:34.425Z,24.48
2022-08-03T14:46:56.442Z,24.56
2022-08-03T14:50:36.115Z,24.57
2022-08-03T14:54:00.854Z,24.60
2022-08-03T14:57:22.921Z,24.59
2022-08-03T15:00:46.306Z,24.48
2022-08-03T15:04:08.596Z,24.49
2022-08-03T15:07:30.391Z,24.46
2022-08-03T15:10:56.563Z,24.49
2022-08-03T15:14:18.662Z,24.47
2022-08-03T15:18:00.430Z,24.54
2022-08-03T15:21:46.885Z,24.43
2022-08-03T15:26:04.113Z,24.23
2022-08-03T15:28:47.552Z,24.22
2022-08-03T15:32:09.884Z,24.20
2022-08-03T15:35:33.417Z,24.22
2022-08-03T15:38:55.722Z,24.19
2022-08-03T15:42:18.071Z,24.12
2022-08-03T15:45:41.874Z,24.05
2022-08-03T15:49:04.295Z,23.99
2022-08-03T15:52:28.074Z,23.95
2022-08-03T15:55:50.292Z,23.90
2022-08-03T15:59:14.085Z,23.87
2022-08-03T16:02:36.338Z,23.97
2022-08-03T16:05:58.144Z,24.19
2022-08-03T16:09:22.816Z,24.54
2022-08-03T16:12:45.623Z,25.16
2022-08-03T16:16:07.943Z,25.69
2022-08-03T16:19:29.809Z,25.99
2022-08-03T16:22:51.834Z,26.53
2022-08-03T16:26:15.569Z,26.78
2022-08-03T16:29:37.922Z,26.88
2022-08-03T16:32:59.860Z,27.12
2022-08-03T16:36:22.028Z,27.60
2022-08-03T16:39:44.211Z,27.77
2022-08-03T16:43:18.127Z,28.01
2022-08-03T16:46:43.157Z,27.89
2022-08-03T16:50:12.791Z,27.94
2022-08-03T16:54:05.502Z,28.19
2022-08-03T16:57:56.530Z,28.56
2022-08-03T17:01:10.949Z,28.67
2022-08-03T17:04:44.848Z,28.91
2022-08-03T17:08:12.765Z,29.20
2022-08-03T17:11:35.697Z,29.12
2022-08-03T17:14:58.985Z,28.97
2022-08-03T17:18:26.620Z,28.79
2022-08-03T17:22:01.533Z,28.81
2022-08-03T17:25:51.224Z,28.71
2022-08-03T17:29:13.047Z,28.74
2022-08-03T17:32:37.004Z,28.79
2022-08-03T17:36:06.941Z,28.85
2022-08-03T17:39:55.559Z,28.76
2022-08-03T17:44:13.579Z,28.27
2022-08-03T17:46:57.741Z,27.57
2022-08-03T17:50:25.944Z,26.90
2022-08-03T17:54:03.828Z,26.15
2022-08-03T17:58:01.204Z,25.44
2022-08-03T18:02:05.617Z,24.95
2022-08-03T18:05:22.009Z,24.78
2022-08-03T18:08:49.610Z,24.37
2022-08-03T18:12:15.511Z,23.89
2022-08-03T18:15:43.528Z,23.31
2022-08-03T18:19:09.588Z,22.68
2022-08-03T18:22:35.962Z,22.35
2022-08-03T18:25:59.403Z,22.10
2022-08-03T18:29:23.303Z,21.74
2022-08-03T18:33:00.630Z,21.42
2022-08-03T18:36:30.071Z,21.13
2022-08-03T18:39:53.351Z,20.74
2022-08-03T18:43:17.672Z,20.54
2022-08-03T18:46:51.992Z,20.25
2022-08-03T18:50:20.279Z,19.83
2022-08-03T18:54:02.310Z,19.84
2022-08-03T18:57:38.201Z,19.59
2022-08-03T19:01:57.427Z,19.52
2022-08-03T19:04:55.972Z,19.43
2022-08-03T19:08:30.016Z,19.23
2022-08-03T19:12:14.045Z,19.12
2022-08-03T19:15:41.463Z,18.92
2022-08-03T19:19:14.604Z,18.73
2022-08-03T19:22:39.927Z,18.55
2022-08-03T19:26:30.299Z,18.50
2022-08-03T19:29:59.511Z,18.34
2022-08-03T19:33:29.947Z,18.19
2022-08-03T19:36:53.138Z,18.11
2022-08-03T19:40:19.770Z,18.04
2022-08-03T19:43:49.365Z,17.77
2022-08-03T19:47:23.696Z,17.90
2022-08-03T19:50:47.103Z,17.84
2022-08-03T19:54:15.113Z,17.72
2022-08-03T19:57:42.222Z,17.57
2022-08-03T20:01:19.418Z,17.43
2022-08-03T20:04:45.811Z,17.40
2022-08-03T20:08:08.327Z,17.31
2022-08-03T20:11:33.228Z,17.22
2022-08-03T20:15:10.777Z,17.19
2022-08-03T20:18:38.910Z,17.13
2022-08-03T20:22:02.438Z,17.09
2022-08-03T20:25:37.970Z,16.99
2022-08-03T20:29:09.107Z,16.97
2022-08-03T20:32:34.545Z,16.86
2022-08-03T20:35:56.523Z,16.80
2022-08-03T20:39:19.502Z,16.68
2022-08-03T20:42:41.862Z,16.64
2022-08-03T20:46:31.868Z,16.65
2022-08-03T20:49:48.298Z,16.58
2022-08-03T20:53:11.972Z,16.53
2022-08-03T20:56:35.572Z,16.47
2022-08-03T21:00:00.086Z,16.42
2022-08-03T21:03:22.329Z,16.36
2022-08-03T21:06:53.187Z,16.32
2022-08-03T21:10:17.374Z,16.32
2022-08-03T21:13:46.709Z,16.16
2022-08-03T21:17:19.471Z,16.26
2022-08-03T21:20:54.027Z,16.24
2022-08-03T21:24:19.295Z,16.22
2022-08-03T21:27:41.875Z,16.18
2022-08-03T21:31:04.988Z,16.14
2022-08-03T21:34:29.085Z,16.11
2022-08-03T21:38:11.902Z,16.06
2022-08-03T21:41:37.343Z,15.97
2022-08-03T21:44:59.626Z,15.92
2022-08-03T21:48:25.560Z,15.98
2022-08-03T21:51:50.775Z,15.80
2022-08-03T21:55:18.380Z,15.94
2022-08-03T21:58:51.174Z,15.72
2022-08-03T22:02:24.095Z,15.88
2022-08-03T22:05:46.558Z,15.83
2022-08-03T22:09:10.993Z,15.74
2022-08-03T22:12:33.360Z,15.83
2022-08-03T22:15:57.191Z,15.78
2022-08-03T22:19:19.329Z,15.77
2022-08-03T22:22:44.892Z,15.71
2022-08-03T22:26:32.263Z,15.67
2022-08-03T22:29:58.138Z,15.62
2022-08-03T22:33:22.392Z,15.57
2022-08-03T22:36:44.475Z,15.50
2022-08-03T22:40:10.164Z,15.46
2022-08-03T22:43:36.359Z,15.34
2022-08-03T22:46:59.733Z,15.34
2022-08-03T22:50:32.916Z,15.34
2022-08-03T22:53:56.103Z,15.27
2022-08-03T22:57:19.103Z,15.27
2022-08-03T23:00:46.933Z,15.25
2022-08-03T23:04:16.105Z,15.18
2022-08-03T23:07:40.806Z,15.14
2022-08-03T23:11:08.873Z,15.14
2022-08-03T23:14:31.836Z,15.12
2022-08-03T23:17:58.583Z,15.05
2022-08-03T23:22:00.723Z,15.08
2022-08-03T23:25:05.015Z,15.06
2022-08-03T23:28:31.270Z,15.03
2022-08-03T23:31:55.345Z,15.02
2022-08-03T23:36:27.978Z,15.02
2022-08-03T23:39:19.006Z,15.02
2022-08-03T23:42:42.918Z,14.99
2022-08-03T23:46:05.822Z,15.02
2022-08-03T23:49:27.732Z,14.95
2022-08-03T23:52:59.151Z,15.00
2022-08-03T23:56:29.961Z,15.03
